sensor_id;sensor_type;location;lat;lon;timestamp;pressure;altitude;pressure_sealevel;temperature;humidity
20043;BME280;10182;52.896;6.496;2023-04-21T00:00:13;101648.03;;;8.13;100.00
20043;BME280;10182;52.896;6.496;2023-04-21T00:05:18;101641.78;;;8.18;100.00
20043;BME280;10182;52.896;6.496;2023-04-21T00:10:22;101625.09;;;8.16;100.00
20043;BME280;10182;52.896;6.496;2023-04-21T00:15:24;101618.72;;;8.26;100.00
20043;BME280;10182;52.896;6.496;2023-04-21T00:20:27;101604.63;;;8.27;100.00
20043;BME280;10182;52.896;6.496;2023-04-21T00:25:29;101596.47;;;8.36;100.00
20043;BME280;10182;52.896;6.496;2023-04-21T00:30:30;101584.03;;;8.41;100.00
20043;BME280;10182;52.896;6.496;2023-04-21T00:35:34;101563.75;;;8.42;100.00
20043;BME280;10182;52.896;6.496;2023-04-21T00:40:36;101555.84;;;8.43;100.00
20043;BME280;10182;52.896;6.496;2023-04-21T00:45:37;101537.50;;;8.37;100.00
20043;BME280;10182;52.896;6.496;2023-04-21T00:50:46;101539.41;;;8.30;100.00
20043;BME280;10182;52.896;6.496;2023-04-21T00:55:49;101534.28;;;8.24;100.00
20043;BME280;10182;52.896;6.496;2023-04-21T01:00:51;101516.72;;;8.23;100.00
20043;BME280;10182;52.896;6.496;2023-04-21T01:05:54;101522.09;;;8.20;100.00
20043;BME280;10182;52.896;6.496;2023-04-21T01:10:59;101510.75;;;8.15;100.00
20043;BME280;10182;52.896;6.496;2023-04-21T01:16:01;101521.41;;;8.10;100.00
20043;BME280;10182;52.896;6.496;2023-04-21T01:21:05;101515.28;;;8.10;100.00
20043;BME280;10182;52.896;6.496;2023-04-21T01:26:08;101519.66;;;8.11;100.00
20043;BME280;10182;52.896;6.496;2023-04-21T01:31:10;101516.13;;;8.10;100.00
20043;BME280;10182;52.896;6.496;2023-04-21T01:36:12;101520.47;;;8.13;100.00
20043;BME280;10182;52.896;6.496;2023-04-21T01:41:15;101512.63;;;8.10;100.00
20043;BME280;10182;52.896;6.496;2023-04-21T01:46:18;101502.13;;;8.08;100.00
20043;BME280;10182;52.896;6.496;2023-04-21T01:51:20;101504.75;;;8.08;100.00
20043;BME280;10182;52.896;6.496;2023-04-21T01:56:23;101502.25;;;8.02;100.00
20043;BME280;10182;52.896;6.496;2023-04-21T02:01:25;101515.56;;;7.97;100.00
20043;BME280;10182;52.896;6.496;2023-04-21T02:06:27;101501.47;;;7.99;100.00
20043;BME280;10182;52.896;6.496;2023-04-21T02:11:30;101500.41;;;8.06;100.00
20043;BME280;10182;52.896;6.496;2023-04-21T02:16:32;101492.38;;;8.12;100.00
20043;BME280;10182;52.896;6.496;2023-04-21T02:21:33;101495.91;;;8.11;100.00
20043;BME280;10182;52.896;6.496;2023-04-21T02:26:36;101494.28;;;8.05;100.00
20043;BME280;10182;52.896;6.496;2023-04-21T02:31:38;101494.25;;;8.07;100.00
20043;BME280;10182;52.896;6.496;2023-04-21T02:36:40;101487.94;;;8.12;100.00
20043;BME280;10182;52.896;6.496;2023-04-21T02:41:44;101486.25;;;8.10;100.00
20043;BME280;10182;52.896;6.496;2023-04-21T02:46:45;101483.69;;;8.07;100.00
20043;BME280;10182;52.896;6.496;2023-04-21T02:51:47;101476.59;;;8.09;100.00
20043;BME280;10182;52.896;6.496;2023-04-21T02:56:50;101473.22;;;8.04;100.00
20043;BME280;10182;52.896;6.496;2023-04-21T03:01:52;101475.94;;;7.99;100.00
20043;BME280;10182;52.896;6.496;2023-04-21T03:06:53;101473.31;;;7.99;100.00
20043;BME280;10182;52.896;6.496;2023-04-21T03:11:57;101475.91;;;8.01;100.00
20043;BME280;10182;52.896;6.496;2023-04-21T03:16:58;101475.88;;;8.04;100.00
20043;BME280;10182;52.896;6.496;2023-04-21T03:22:00;101471.28;;;8.10;100.00
20043;BME280;10182;52.896;6.496;2023-04-21T03:27:04;101471.41;;;8.06;100.00
20043;BME280;10182;52.896;6.496;2023-04-21T03:32:06;101479.31;;;8.06;100.00
20043;BME280;10182;52.896;6.496;2023-04-21T03:37:07;101470.59;;;8.04;100.00
20043;BME280;10182;52.896;6.496;2023-04-21T03:42:10;101474.88;;;8.08;100.00
20043;BME280;10182;52.896;6.496;2023-04-21T03:47:12;101467.78;;;8.10;100.00
20043;BME280;10182;52.896;6.496;2023-04-21T03:52:14;101479.19;;;8.12;100.00
20043;BME280;10182;52.896;6.496;2023-04-21T03:57:17;101486.13;;;8.14;100.00
20043;BME280;10182;52.896;6.496;2023-04-21T04:02:19;101492.06;;;8.23;100.00
20043;BME280;10182;52.896;6.496;2023-04-21T04:07:20;101498.38;;;8.17;100.00
20043;BME280;10182;52.896;6.496;2023-04-21T04:12:23;101484.19;;;8.21;100.00
20043;BME280;10182;52.896;6.496;2023-04-21T04:17:25;101491.34;;;8.18;100.00
20043;BME280;10182;52.896;6.496;2023-04-21T04:22:27;101486.16;;;8.13;100.00
20043;BME280;10182;52.896;6.496;2023-04-21T04:27:30;101489.69;;;8.13;100.00
20043;BME280;10182;52.896;6.496;2023-04-21T04:32:31;101497.66;;;8.10;100.00
20043;BME280;10182;52.896;6.496;2023-04-21T04:37:34;101504.16;;;7.97;100.00
20043;BME280;10182;52.896;6.496;2023-04-21T04:42:38;101508.66;;;7.92;100.00
20043;BME280;10182;52.896;6.496;2023-04-21T04:47:39;101514.06;;;7.86;100.00
20043;BME280;10182;52.896;6.496;2023-04-21T04:52:42;101511.44;;;7.86;100.00
20043;BME280;10182;52.896;6.496;2023-04-21T04:57:47;101515.97;;;7.79;100.00
20043;BME280;10182;52.896;6.496;2023-04-21T05:02:49;101520.50;;;8.11;100.00
20043;BME280;10182;52.896;6.496;2023-04-21T05:07:51;101508.31;;;8.45;100.00
20043;BME280;10182;52.896;6.496;2023-04-21T05:12:54;101511.66;;;8.52;100.00
20043;BME280;10182;52.896;6.496;2023-04-21T05:17:56;101520.88;;;8.32;100.00
20043;BME280;10182;52.896;6.496;2023-04-21T05:22:57;101519.34;;;8.23;100.00
20043;BME280;10182;52.896;6.496;2023-04-21T05:28:00;101515.81;;;8.24;100.00
20043;BME280;10182;52.896;6.496;2023-04-21T05:33:04;101522.84;;;8.24;100.00
20043;BME280;10182;52.896;6.496;2023-04-21T05:38:05;101525.66;;;8.18;100.00
20043;BME280;10182;52.896;6.496;2023-04-21T05:43:09;101528.13;;;8.24;100.00
20043;BME280;10182;52.896;6.496;2023-04-21T05:48:10;101531.06;;;8.49;100.00
20043;BME280;10182;52.896;6.496;2023-04-21T05:53:12;101534.97;;;8.69;100.00
20043;BME280;10182;52.896;6.496;2023-04-21T05:58:15;101532.91;;;8.80;100.00
20043;BME280;10182;52.896;6.496;2023-04-21T06:03:16;101530.25;;;8.80;100.00
20043;BME280;10182;52.896;6.496;2023-04-21T06:08:18;101523.66;;;8.96;100.00
20043;BME280;10182;52.896;6.496;2023-04-21T06:13:21;101522.44;;;9.08;100.00
20043;BME280;10182;52.896;6.496;2023-04-21T06:18:25;101518.03;;;9.09;100.00
20043;BME280;10182;52.896;6.496;2023-04-21T06:23:27;101511.75;;;9.13;100.00
20043;BME280;10182;52.896;6.496;2023-04-21T06:28:30;101500.22;;;9.15;100.00
20043;BME280;10182;52.896;6.496;2023-04-21T06:33:32;101497.84;;;9.36;100.00
20043;BME280;10182;52.896;6.496;2023-04-21T06:38:34;101502.56;;;9.56;100.00
20043;BME280;10182;52.896;6.496;2023-04-21T06:43:37;101498.56;;;9.71;100.00
20043;BME280;10182;52.896;6.496;2023-04-21T06:48:39;101490.06;;;9.90;100.00
20043;BME280;10182;52.896;6.496;2023-04-21T06:53:40;101487.31;;;10.20;100.00
20043;BME280;10182;52.896;6.496;2023-04-21T06:58:43;101487.72;;;10.34;100.00
20043;BME280;10182;52.896;6.496;2023-04-21T07:03:46;101481.25;;;10.44;100.00
20043;BME280;10182;52.896;6.496;2023-04-21T07:08:48;101480.44;;;10.42;100.00
20043;BME280;10182;52.896;6.496;2023-04-21T07:13:51;101473.34;;;10.43;100.00
20043;BME280;10182;52.896;6.496;2023-04-21T07:18:52;101486.81;;;10.62;100.00
20043;BME280;10182;52.896;6.496;2023-04-21T07:23:54;101478.78;;;10.65;100.00
20043;BME280;10182;52.896;6.496;2023-04-21T07:28:57;101487.47;;;10.69;100.00
20043;BME280;10182;52.896;6.496;2023-04-21T07:33:59;101478.75;;;10.90;100.00
20043;BME280;10182;52.896;6.496;2023-04-21T07:39:00;101484.13;;;11.12;100.00
20043;BME280;10182;52.896;6.496;2023-04-21T07:44:04;101475.28;;;11.35;100.00
20043;BME280;10182;52.896;6.496;2023-04-21T07:49:07;101476.00;;;11.41;100.00
20043;BME280;10182;52.896;6.496;2023-04-21T07:54:08;101471.16;;;11.74;100.00
20043;BME280;10182;52.896;6.496;2023-04-21T07:59:11;101468.59;;;11.95;100.00
20043;BME280;10182;52.896;6.496;2023-04-21T08:04:13;101465.91;;;12.17;100.00
20043;BME280;10182;52.896;6.496;2023-04-21T08:09:15;101463.88;;;12.44;100.00
20043;BME280;10182;52.896;6.496;2023-04-21T08:14:18;101463.28;;;12.38;100.00
20043;BME280;10182;52.896;6.496;2023-04-21T08:19:20;101458.56;;;12.24;100.00
20043;BME280;10182;52.896;6.496;2023-04-21T08:24:22;101452.31;;;12.25;100.00
20043;BME280;10182;52.896;6.496;2023-04-21T08:29:25;101447.34;;;12.38;100.00
20043;BME280;10182;52.896;6.496;2023-04-21T08:34:26;101440.22;;;12.38;100.00
20043;BME280;10182;52.896;6.496;2023-04-21T08:39:28;101447.41;;;12.57;100.00
20043;BME280;10182;52.896;6.496;2023-04-21T08:44:31;101440.91;;;12.83;100.00
20043;BME280;10182;52.896;6.496;2023-04-21T08:49:33;101441.78;;;13.02;100.00
20043;BME280;10182;52.896;6.496;2023-04-21T08:54:35;101447.59;;;13.12;100.00
20043;BME280;10182;52.896;6.496;2023-04-21T08:59:39;101436.78;;;13.15;100.00
20043;BME280;10182;52.896;6.496;2023-04-21T09:04:43;101426.22;;;13.33;100.00
20043;BME280;10182;52.896;6.496;2023-04-21T09:09:51;101424.16;;;13.59;100.00
20043;BME280;10182;52.896;6.496;2023-04-21T09:14:55;101424.97;;;13.78;100.00
20043;BME280;10182;52.896;6.496;2023-04-21T09:20:12;101417.75;;;13.80;100.00
20043;BME280;10182;52.896;6.496;2023-04-21T09:25:15;101412.84;;;13.90;100.00
20043;BME280;10182;52.896;6.496;2023-04-21T09:30:19;101416.13;;;13.95;100.00
20043;BME280;10182;52.896;6.496;2023-04-21T09:35:22;101406.19;;;13.99;100.00
20043;BME280;10182;52.896;6.496;2023-04-21T09:40:25;101409.00;;;14.13;100.00
20043;BME280;10182;52.896;6.496;2023-04-21T09:45:28;101412.94;;;14.24;100.00
20043;BME280;10182;52.896;6.496;2023-04-21T09:50:30;101406.88;;;14.37;100.00
20043;BME280;10182;52.896;6.496;2023-04-21T09:55:33;101408.13;;;14.65;100.00
20043;BME280;10182;52.896;6.496;2023-04-21T10:00:37;101403.34;;;14.88;100.00
20043;BME280;10182;52.896;6.496;2023-04-21T10:05:40;101401.47;;;15.06;100.00
20043;BME280;10182;52.896;6.496;2023-04-21T10:10:44;101389.28;;;15.34;100.00
20043;BME280;10182;52.896;6.496;2023-04-21T10:15:47;101385.75;;;15.49;100.00
20043;BME280;10182;52.896;6.496;2023-04-21T10:20:50;101363.53;;;15.79;100.00
20043;BME280;10182;52.896;6.496;2023-04-21T10:25:53;101370.88;;;15.92;100.00
20043;BME280;10182;52.896;6.496;2023-04-21T10:31:28;101365.63;;;16.04;100.00
20043;BME280;10182;52.896;6.496;2023-04-21T10:36:30;101349.59;;;16.04;100.00
20043;BME280;10182;52.896;6.496;2023-04-21T10:41:34;101348.47;;;16.08;100.00
20043;BME280;10182;52.896;6.496;2023-04-21T10:46:38;101334.50;;;16.34;100.00
20043;BME280;10182;52.896;6.496;2023-04-21T10:52:02;101332.00;;;16.60;100.00
20043;BME280;10182;52.896;6.496;2023-04-21T10:57:05;101322.34;;;16.71;100.00
20043;BME280;10182;52.896;6.496;2023-04-21T11:02:12;101328.06;;;16.80;100.00
20043;BME280;10182;52.896;6.496;2023-04-21T11:07:15;101309.84;;;16.57;100.00
20043;BME280;10182;52.896;6.496;2023-04-21T11:12:17;101308.78;;;16.74;100.00
20043;BME280;10182;52.896;6.496;2023-04-21T11:17:20;101307.44;;;16.82;100.00
20043;BME280;10182;52.896;6.496;2023-04-21T11:22:24;101301.63;;;16.75;100.00
20043;BME280;10182;52.896;6.496;2023-04-21T11:27:27;101279.06;;;16.79;100.00
20043;BME280;10182;52.896;6.496;2023-04-21T11:32:31;101263.97;;;17.20;100.00
20043;BME280;10182;52.896;6.496;2023-04-21T11:37:33;101258.47;;;17.49;100.00
20043;BME280;10182;52.896;6.496;2023-04-21T11:42:35;101252.41;;;17.85;100.00
20043;BME280;10182;52.896;6.496;2023-04-21T11:47:38;101247.41;;;17.93;100.00
20043;BME280;10182;52.896;6.496;2023-04-21T11:52:40;101240.56;;;18.15;100.00
20043;BME280;10182;52.896;6.496;2023-04-21T11:57:43;101229.34;;;18.34;100.00
20043;BME280;10182;52.896;6.496;2023-04-21T12:02:53;101223.19;;;18.45;99.02
20043;BME280;10182;52.896;6.496;2023-04-21T12:07:55;101216.91;;;18.70;94.59
20043;BME280;10182;52.896;6.496;2023-04-21T12:12:57;101214.38;;;18.93;90.40
20043;BME280;10182;52.896;6.496;2023-04-21T12:18:00;101218.00;;;18.68;90.08
20043;BME280;10182;52.896;6.496;2023-04-21T12:23:02;101203.53;;;18.20;89.17
20043;BME280;10182;52.896;6.496;2023-04-21T12:28:07;101210.31;;;18.00;83.50
20043;BME280;10182;52.896;6.496;2023-04-21T12:33:10;101200.44;;;17.88;85.87
20043;BME280;10182;52.896;6.496;2023-04-21T12:38:12;101191.84;;;17.70;88.92
20043;BME280;10182;52.896;6.496;2023-04-21T12:43:13;101193.91;;;17.66;80.76
20043;BME280;10182;52.896;6.496;2023-04-21T12:48:16;101195.06;;;17.62;85.02
20043;BME280;10182;52.896;6.496;2023-04-21T12:53:18;101196.84;;;17.36;84.64
20043;BME280;10182;52.896;6.496;2023-04-21T12:58:20;101190.13;;;17.43;87.06
20043;BME280;10182;52.896;6.496;2023-04-21T13:03:23;101179.22;;;17.72;92.61
20043;BME280;10182;52.896;6.496;2023-04-21T13:08:25;101175.25;;;18.03;85.19
20043;BME280;10182;52.896;6.496;2023-04-21T13:13:26;101170.22;;;18.12;79.39
20043;BME280;10182;52.896;6.496;2023-04-21T13:18:30;101160.09;;;18.28;75.95
20043;BME280;10182;52.896;6.496;2023-04-21T13:23:31;101153.00;;;18.27;74.52
20043;BME280;10182;52.896;6.496;2023-04-21T13:28:33;101141.44;;;18.26;79.51
20043;BME280;10182;52.896;6.496;2023-04-21T13:33:37;101138.38;;;18.44;77.19
20043;BME280;10182;52.896;6.496;2023-04-21T13:38:38;101135.69;;;18.44;72.75
20043;BME280;10182;52.896;6.496;2023-04-21T13:43:40;101120.56;;;18.43;70.03
20043;BME280;10182;52.896;6.496;2023-04-21T13:48:44;101112.16;;;18.48;69.93
20043;BME280;10182;52.896;6.496;2023-04-21T13:53:46;101113.53;;;18.53;67.34
20043;BME280;10182;52.896;6.496;2023-04-21T13:58:48;101098.19;;;18.80;68.45
20043;BME280;10182;52.896;6.496;2023-04-21T14:03:51;101081.59;;;18.86;62.51
20043;BME280;10182;52.896;6.496;2023-04-21T14:08:53;101074.13;;;18.78;59.50
20043;BME280;10182;52.896;6.496;2023-04-21T14:13:55;101075.84;;;18.79;56.86
20043;BME280;10182;52.896;6.496;2023-04-21T14:18:58;101054.97;;;18.71;57.88
20043;BME280;10182;52.896;6.496;2023-04-21T14:23:59;101041.22;;;18.87;53.78
20043;BME280;10182;52.896;6.496;2023-04-21T14:29:01;101032.88;;;18.92;53.12
20043;BME280;10182;52.896;6.496;2023-04-21T14:34:04;101028.59;;;19.01;51.48
20043;BME280;10182;52.896;6.496;2023-04-21T14:39:06;101024.81;;;18.92;50.75
20043;BME280;10182;52.896;6.496;2023-04-21T14:44:09;101014.09;;;18.92;49.28
20043;BME280;10182;52.896;6.496;2023-04-21T14:49:12;101010.41;;;18.93;50.01
20043;BME280;10182;52.896;6.496;2023-04-21T14:54:14;101000.53;;;18.93;48.91
20043;BME280;10182;52.896;6.496;2023-04-21T14:59:16;100986.28;;;19.04;48.13
20043;BME280;10182;52.896;6.496;2023-04-21T15:04:19;100981.63;;;19.06;48.36
20043;BME280;10182;52.896;6.496;2023-04-21T15:09:21;100982.72;;;19.04;47.13
20043;BME280;10182;52.896;6.496;2023-04-21T15:14:22;100976.63;;;19.02;45.68
20043;BME280;10182;52.896;6.496;2023-04-21T15:19:25;100959.38;;;18.82;45.82
20043;BME280;10182;52.896;6.496;2023-04-21T15:24:27;100949.84;;;18.77;47.63
20043;BME280;10182;52.896;6.496;2023-04-21T15:29:29;100941.94;;;18.65;49.38
20043;BME280;10182;52.896;6.496;2023-04-21T15:34:32;100938.97;;;18.56;50.78
20043;BME280;10182;52.896;6.496;2023-04-21T15:39:34;100933.19;;;18.38;49.42
20043;BME280;10182;52.896;6.496;2023-04-21T15:44:36;100935.78;;;18.40;49.15
20043;BME280;10182;52.896;6.496;2023-04-21T15:49:40;100925.25;;;18.37;49.25
20043;BME280;10182;52.896;6.496;2023-04-21T15:54:44;100918.22;;;18.47;50.30
20043;BME280;10182;52.896;6.496;2023-04-21T15:59:46;100897.66;;;18.70;49.20
20043;BME280;10182;52.896;6.496;2023-04-21T16:04:49;100901.22;;;18.82;48.59
20043;BME280;10182;52.896;6.496;2023-04-21T16:09:51;100897.81;;;18.91;48.32
20043;BME280;10182;52.896;6.496;2023-04-21T16:14:52;100875.13;;;19.07;48.40
20043;BME280;10182;52.896;6.496;2023-04-21T16:19:56;100867.31;;;19.15;46.40
20043;BME280;10182;52.896;6.496;2023-04-21T16:24:58;100865.72;;;19.01;47.21
20043;BME280;10182;52.896;6.496;2023-04-21T16:30:00;100850.59;;;18.77;48.84
20043;BME280;10182;52.896;6.496;2023-04-21T16:35:05;100845.84;;;18.81;48.71
20043;BME280;10182;52.896;6.496;2023-04-21T16:40:08;100850.84;;;18.74;49.23
20043;BME280;10182;52.896;6.496;2023-04-21T16:45:10;100852.41;;;18.66;48.33
20043;BME280;10182;52.896;6.496;2023-04-21T16:50:14;100860.94;;;18.59;48.87
20043;BME280;10182;52.896;6.496;2023-04-21T16:55:16;100847.75;;;18.34;51.04
20043;BME280;10182;52.896;6.496;2023-04-21T17:00:18;100850.94;;;18.27;49.44
20043;BME280;10182;52.896;6.496;2023-04-21T17:05:21;100856.03;;;18.31;47.96
20043;BME280;10182;52.896;6.496;2023-04-21T17:10:23;100847.75;;;18.34;49.29
20043;BME280;10182;52.896;6.496;2023-04-21T17:15:26;100854.91;;;18.22;49.76
20043;BME280;10182;52.896;6.496;2023-04-21T17:20:29;100859.16;;;18.02;51.84
20043;BME280;10182;52.896;6.496;2023-04-21T17:25:31;100852.22;;;17.86;52.39
20043;BME280;10182;52.896;6.496;2023-04-21T17:30:33;100848.41;;;17.77;53.83
20043;BME280;10182;52.896;6.496;2023-04-21T17:35:37;100847.91;;;17.72;53.37
20043;BME280;10182;52.896;6.496;2023-04-21T17:40:38;100857.25;;;17.67;63.02
20043;BME280;10182;52.896;6.496;2023-04-21T17:45:40;100850.00;;;17.32;87.63
20043;BME280;10182;52.896;6.496;2023-04-21T17:50:43;100843.81;;;16.94;96.06
20043;BME280;10182;52.896;6.496;2023-04-21T17:55:45;100838.91;;;16.62;100.00
20043;BME280;10182;52.896;6.496;2023-04-21T18:00:47;100829.09;;;16.50;100.00
20043;BME280;10182;52.896;6.496;2023-04-21T18:05:50;100828.25;;;16.36;100.00
20043;BME280;10182;52.896;6.496;2023-04-21T18:10:53;100816.16;;;16.31;100.00
20043;BME280;10182;52.896;6.496;2023-04-21T18:15:55;100809.22;;;16.28;100.00
20043;BME280;10182;52.896;6.496;2023-04-21T18:20:58;100812.09;;;16.38;81.42
20043;BME280;10182;52.896;6.496;2023-04-21T18:26:00;100802.75;;;16.56;70.08
20043;BME280;10182;52.896;6.496;2023-04-21T18:31:02;100805.66;;;16.66;66.58
20043;BME280;10182;52.896;6.496;2023-04-21T18:36:05;100803.38;;;16.73;64.99
20043;BME280;10182;52.896;6.496;2023-04-21T18:41:07;100800.69;;;16.73;63.97
20043;BME280;10182;52.896;6.496;2023-04-21T18:46:09;100808.72;;;16.73;64.21
20043;BME280;10182;52.896;6.496;2023-04-21T18:51:13;100809.41;;;16.64;63.66
20043;BME280;10182;52.896;6.496;2023-04-21T18:56:14;100813.38;;;16.58;65.01
20043;BME280;10182;52.896;6.496;2023-04-21T19:01:16;100812.28;;;16.48;65.09
20043;BME280;10182;52.896;6.496;2023-04-21T19:06:19;100814.84;;;16.49;65.81
20043;BME280;10182;52.896;6.496;2023-04-21T19:11:21;100805.44;;;16.44;65.08
20043;BME280;10182;52.896;6.496;2023-04-21T19:16:23;100812.81;;;16.40;66.00
20043;BME280;10182;52.896;6.496;2023-04-21T19:21:26;100813.25;;;16.34;67.26
20043;BME280;10182;52.896;6.496;2023-04-21T19:26:29;100814.66;;;16.27;69.02
20043;BME280;10182;52.896;6.496;2023-04-21T19:31:30;100830.56;;;16.15;69.72
20043;BME280;10182;52.896;6.496;2023-04-21T19:36:33;100823.09;;;16.20;69.61
20043;BME280;10182;52.896;6.496;2023-04-21T19:41:35;100839.13;;;16.20;70.38
20043;BME280;10182;52.896;6.496;2023-04-21T19:46:37;100899.28;;;16.13;78.14
20043;BME280;10182;52.896;6.496;2023-04-21T19:51:43;100925.84;;;15.89;100.00
20043;BME280;10182;52.896;6.496;2023-04-21T19:56:44;100945.53;;;15.59;100.00
20043;BME280;10182;52.896;6.496;2023-04-21T20:01:46;100968.19;;;15.25;100.00
20043;BME280;10182;52.896;6.496;2023-04-21T20:06:49;100952.38;;;14.78;100.00
20043;BME280;10182;52.896;6.496;2023-04-21T20:11:51;100962.72;;;14.38;100.00
20043;BME280;10182;52.896;6.496;2023-04-21T20:16:53;100936.78;;;13.95;100.00
20043;BME280;10182;52.896;6.496;2023-04-21T20:21:56;100901.97;;;13.36;100.00
20043;BME280;10182;52.896;6.496;2023-04-21T20:26:58;100894.38;;;13.12;100.00
20043;BME280;10182;52.896;6.496;2023-04-21T20:32:00;100857.31;;;12.93;100.00
20043;BME280;10182;52.896;6.496;2023-04-21T20:37:04;100868.97;;;12.91;100.00
20043;BME280;10182;52.896;6.496;2023-04-21T20:42:07;100831.66;;;12.92;100.00
20043;BME280;10182;52.896;6.496;2023-04-21T20:47:10;100817.94;;;12.84;100.00
20043;BME280;10182;52.896;6.496;2023-04-21T20:52:14;100807.63;;;12.78;100.00
20043;BME280;10182;52.896;6.496;2023-04-21T20:57:16;100799.06;;;12.73;100.00
20043;BME280;10182;52.896;6.496;2023-04-21T21:02:18;100791.69;;;12.62;100.00
20043;BME280;10182;52.896;6.496;2023-04-21T21:07:21;100783.84;;;12.59;100.00
20043;BME280;10182;52.896;6.496;2023-04-21T21:12:23;100808.13;;;12.52;100.00
20043;BME280;10182;52.896;6.496;2023-04-21T21:17:24;100835.03;;;12.62;100.00
20043;BME280;10182;52.896;6.496;2023-04-21T21:22:27;100871.78;;;12.54;100.00
20043;BME280;10182;52.896;6.496;2023-04-21T21:27:29;100849.41;;;12.76;100.00
20043;BME280;10182;52.896;6.496;2023-04-21T21:32:32;100824.00;;;12.86;100.00
20043;BME280;10182;52.896;6.496;2023-04-21T21:37:35;100827.38;;;12.90;100.00
20043;BME280;10182;52.896;6.496;2023-04-21T21:42:37;100807.53;;;12.79;100.00
20043;BME280;10182;52.896;6.496;2023-04-21T21:47:39;100793.66;;;12.74;100.00
20043;BME280;10182;52.896;6.496;2023-04-21T21:52:42;100790.81;;;12.61;100.00
20043;BME280;10182;52.896;6.496;2023-04-21T21:57:44;100797.13;;;12.59;100.00
20043;BME280;10182;52.896;6.496;2023-04-21T22:02:46;100800.16;;;12.52;100.00
20043;BME280;10182;52.896;6.496;2023-04-21T22:07:49;100782.44;;;12.35;100.00
20043;BME280;10182;52.896;6.496;2023-04-21T22:12:52;100792.63;;;12.27;100.00
20043;BME280;10182;52.896;6.496;2023-04-21T22:17:54;100789.97;;;12.27;100.00
20043;BME280;10182;52.896;6.496;2023-04-21T22:22:57;100800.34;;;12.32;100.00
20043;BME280;10182;52.896;6.496;2023-04-21T22:27:58;100810.31;;;12.44;100.00
20043;BME280;10182;52.896;6.496;2023-04-21T22:33:00;100791.13;;;12.39;100.00
20043;BME280;10182;52.896;6.496;2023-04-21T22:38:03;100867.94;;;12.60;100.00
20043;BME280;10182;52.896;6.496;2023-04-21T22:43:05;100904.66;;;12.69;100.00
20043;BME280;10182;52.896;6.496;2023-04-21T22:48:07;100928.31;;;12.40;100.00
20043;BME280;10182;52.896;6.496;2023-04-21T22:53:10;100945.63;;;11.95;100.00
20043;BME280;10182;52.896;6.496;2023-04-21T22:58:12;100943.06;;;11.55;100.00
20043;BME280;10182;52.896;6.496;2023-04-21T23:03:14;100931.47;;;11.20;100.00
20043;BME280;10182;52.896;6.496;2023-04-21T23:08:17;100948.88;;;11.25;100.00
20043;BME280;10182;52.896;6.496;2023-04-21T23:13:19;100925.50;;;11.14;100.00
20043;BME280;10182;52.896;6.496;2023-04-21T23:18:20;100903.38;;;11.15;100.00
20043;BME280;10182;52.896;6.496;2023-04-21T23:23:23;100845.75;;;10.81;100.00
20043;BME280;10182;52.896;6.496;2023-04-21T23:28:25;100830.06;;;10.76;100.00
20043;BME280;10182;52.896;6.496;2023-04-21T23:33:27;100844.38;;;10.72;100.00
20043;BME280;10182;52.896;6.496;2023-04-21T23:38:30;100851.59;;;10.69;100.00
20043;BME280;10182;52.896;6.496;2023-04-21T23:43:32;100857.91;;;10.66;100.00
20043;BME280;10182;52.896;6.496;2023-04-21T23:48:36;100862.13;;;10.70;100.00
20043;BME280;10182;52.896;6.496;2023-04-21T23:53:39;100854.34;;;10.67;100.00
20043;BME280;10182;52.896;6.496;2023-04-21T23:58:41;100856.31;;;10.62;100.00
